Terminal Aerodrome Forecast
Issued by NWS

Home | Current Version | Previous Version | Graphics & Text | Print | Product List | Glossary On
Versions: 1 2 3 4 5 6 7 8 9 10 11 12 13 14 15 16 17 18
000
FTUS43 KOAX 271729
TAFCDR
TAF
KCDR 271729Z 2718/2818 10007KT P6SM SKC
     FM280600 12009KT 6SM -RA SCT020 OVC035
     FM281200 11010KT 2SM -RA SCT003 OVC007=

USA.gov is the U.S. government's official web portal to all federal, state and local government web resources and services.